Impacts TAF Board
For situational awareness. Not to be used for flight planning purposes.
IDs:

KTLH - Tallahassee Intl, FL, US

Issued at 0805 UTC 10 Dec 2022
Updated at 0911 UTC 10 Dec 2022
Potential Impact None Slight Moderate High
Time0853Z 10/10Z 10/11Z 10/12Z 10/13Z 10/14Z 10/15Z 10/16Z 10/17Z 10/18Z 10/19Z 10/20Z 10/21Z 10/22Z>>
Type OBS PRVL PRVL PRVL PRVL PRVL PRVL PRVL PRVL PRVL PRVL PRVL PRVL PRVL
VIS 0.25 0.25 0.25 0.25 0.25 >6 >6 >6 >6 >6 >6 >6 >6 >6
CIG 1 1 1 1 1 -- -- -- -- -- -- -- -- --
Cover OVX OVX OVX OVX OVX SCT SCT SCT SCT SCT SCT SCT SCT SCT
FltCat LIFR LIFR LIFR LIFR LIFR VFR VFR VFR VFR VFR VFR VFR VFR VFR
WX FG FG FG FG FG -- -- -- -- -- -- -- -- --
WDir 300 VRB VRB VRB VRB 340 340 340 340 340 340 340 340 340
WSpd 3 0 0 0 0 2 2 2 2 2 2 2 2 2
WGst -- -- -- -- -- -- -- -- -- -- -- -- -- --
WSHgt -- -- -- -- -- -- -- -- -- -- -- -- -- --
WSDir -- -- -- -- -- -- -- -- -- -- -- -- -- --
WSSpd -- -- -- -- -- -- -- -- -- -- -- -- -- --
R09/27
XWnd 2 VRB VRB VRB VRB 2 2 2 2 2 2 2 2 2
R18/36
XWnd -3 VRB VRB VRB VRB -1 -1 -1 -1 -1 -1 -1 -1 -1
Raw TAF
KTLH 100805Z 1008/1106 00000KT 1/4SM FG VV001
  FM101400 34002KT P6SM SCT040
  FM110400 00000KT P6SM OVC015


Raw METAR
KTLH 100853Z 30003KT 1/4SM FG VV001 14/14 A3011 RMK AO2 SLP197 T01440144 54000
KTLH 100753Z 00000KT 1/4SM FG VV001 13/13 A3012 RMK AO2 SLP197 T01330133
KTLH 100744Z 00000KT 1/4SM FG VV002 13/13 A3012 RMK AO2 T01330133
KTLH 100737Z 00000KT 1 1/4SM BR OVC003 13/13 A3012 RMK AO2 T01330128
KTLH 100719Z 00000KT 9SM OVC004 14/14 A3011 RMK AO2 T01440139
KTLH 100707Z 00000KT 10SM BKN005 15/14 A3011 RMK AO2 T01500139
KTLH 100653Z 00000KT 10SM FEW005 15/14 A3011 RMK AO2 SLP196 T01500139

METAR Board
Radar Display
Forecast Discussion
For situational awareness. Not to be used for flight planning purposes.